Clifford A. Barnes — WRN5495 — position and weather

sailwx.info

Track history (hours):
 
Tides and Currents Weather Stations Pressure Air Temp Water Temp Dewpoint Dewpoint Depression Visibility Wind Speed Wind Dir Waves Ship Positions

Oceanographic research ship Clifford A. Barnes (USA)

Ship's website: http://www.ocean.washington.edu/vessels/CAB/cab.html

Detailed information on ship capabilities available from University of Delaware's Ocean Information Center.

Owner: UNIVERSITY OF WASHINGTON, SEATTLE, WA. More information available from US FCC via Universal Licensing System.

Last reported at 2017-Jun-28 06:35 UTC. Time now 2017-Jun-28 07:04 UTC.
Position N 47°54' W 122°37'.

Length 22 m.

Type: Other ship. MMSI: 366918910.

Date/timePositionNaut miles runAvg speedWind from/ knotsBaromVisibWave heightAir tempDewpointWater temp
2017-Jun-28 06:35N 47°54' W 122°37'1 0.5
2017-Jun-28 05:22N 47°54' W 122°37'0 0.3
2017-Jun-28 03:38N 47°54' W 122°36'0 0.9
2017-Jun-28 03:25N 47°53' W 122°36'11 6.8
2017-Jun-28 01:43N 47°44' W 122°46'3 8.2
2017-Jun-28 01:20N 47°41' W 122°47'3 8.7
2017-Jun-28 01:00N 47°40' W 122°51'3 0.2
2017-Jun-27 13:13N 47°40' W 122°55'0 0.0
2017-Jun-27 12:01N 47°40' W 122°55'0 0.0
2017-Jun-27 11:49N 47°40' W 122°55'0 0.0
2017-Jun-27 10:01N 47°40' W 122°55'0 0.0
2017-Jun-27 09:42N 47°40' W 122°55'0 1.5
2017-Jun-27 09:31N 47°40' W 122°55'2 4.3
2017-Jun-27 09:01N 47°40' W 122°51'0 0.6
2017-Jun-27 08:31N 47°40' W 122°52'1 1.6
2017-Jun-27 08:00N 47°40' W 122°51'1 2.3
2017-Jun-27 07:30N 47°41' W 122°51'0 0.7
2017-Jun-27 07:00N 47°41' W 122°51'0 0.8
2017-Jun-27 06:31N 47°40' W 122°51'0 0.9
2017-Jun-27 06:01N 47°40' W 122°51'0 0.8
2017-Jun-27 05:31N 47°40' W 122°52'0 0.3
2017-Jun-27 05:00N 47°40' W 122°51'0 0.5
2017-Jun-27 04:30N 47°40' W 122°51'0 0.2
2017-Jun-27 04:01N 47°40' W 122°51'0 0.9
2017-Jun-27 03:30N 47°40' W 122°52'0 0.7
2017-Jun-27 03:01N 47°40' W 122°51'1 2.0
2017-Jun-27 02:31N 47°40' W 122°53'0 0.5
2017-Jun-27 02:00N 47°40' W 122°53'4 7.3
2017-Jun-27 01:31N 47°37' W 122°56'5 9.3
2017-Jun-27 01:00N 47°33' W 123°00'5 9.5
2017-Jun-27 00:30N 47°29' W 123°04'8 0.6
2017-Jun-26 11:23N 47°21' W 123°04'3 6.8
2017-Jun-26 10:57N 47°23' W 123°08'0 0.1
2017-Jun-26 08:05N 47°23' W 123°08'1 4.1
2017-Jun-26 07:57N 47°22' W 123°08'0 0.5
2017-Jun-26 07:28N 47°23' W 123°08'0 0.3
2017-Jun-26 06:55N 47°23' W 123°08'0 0.4
2017-Jun-26 06:25N 47°22' W 123°08'0 0.5
2017-Jun-26 06:00N 47°23' W 123°08'0 0.6
2017-Jun-26 05:30N 47°23' W 123°08'1 1.1
2017-Jun-26 04:46N 47°22' W 123°08'1 2.4
2017-Jun-26 04:31N 47°23' W 123°08'0 0.1
2017-Jun-26 03:50N 47°23' W 123°08'3 0.2
2017-Jun-25 10:06N 47°21' W 123°04'3 7.7
2017-Jun-25 09:47N 47°22' W 123°07'2 7.8
2017-Jun-25 09:30N 47°25' W 123°07'0 0.4
2017-Jun-25 09:00N 47°24' W 123°08'1 2.5
2017-Jun-25 08:30N 47°26' W 123°07'1 1.4
2017-Jun-25 08:00N 47°25' W 123°07'1 2.2
2017-Jun-25 07:29N 47°26' W 123°06'1 1.8
2017-Jun-25 06:55N 47°25' W 123°07'0 0.1
2017-Jun-25 06:29N 47°25' W 123°07'0 0.2
2017-Jun-25 06:00N 47°25' W 123°07'1 1.6
2017-Jun-25 05:20N 47°24' W 123°08'0 0.3
2017-Jun-25 05:00N 47°24' W 123°08'1 1.4
2017-Jun-25 04:28N 47°25' W 123°07'0 0.1
2017-Jun-25 03:32N 47°25' W 123°07'0 0.7
2017-Jun-25 03:26N 47°25' W 123°07'0 0.2
2017-Jun-25 03:00N 47°25' W 123°07'0 0.3
2017-Jun-25 02:30N 47°25' W 123°07'0 0.9
2017-Jun-25 02:00N 47°25' W 123°07'1 1.5
2017-Jun-25 01:29N 47°25' W 123°07'0 0.7
2017-Jun-25 01:00N 47°26' W 123°07'5 0.3
2017-Jun-24 10:15N 47°21' W 123°04'0 0.7
2017-Jun-24 09:38N 47°21' W 123°04'0 2.2
2017-Jun-24 09:27N 47°21' W 123°04'0 0.0
2017-Jun-22 16:40N 47°21' W 123°04'0 0.0
2017-Jun-22 16:29N 47°21' W 123°04'0 0.0
2017-Jun-22 15:54N 47°21' W 123°04'  
Track history (hours):
 
Tides and Currents Weather Stations Pressure Air Temp Water Temp Dewpoint Dewpoint Depression Visibility Wind Speed Wind Dir Waves Ship Positions

Oceanographic research ship Clifford A. Barnes (USA)

Ship's website: http://www.ocean.washington.edu/vessels/CAB/cab.html

Detailed information on ship capabilities available from University of Delaware's Ocean Information Center.

Owner: UNIVERSITY OF WASHINGTON, SEATTLE, WA. More information available from US FCC via Universal Licensing System.

Last reported at 2017-Jun-28 06:35 UTC. Time now 2017-Jun-28 07:04 UTC.
Position N 47°54' W 122°37'.

Length 22 m.

Type: Other ship. MMSI: 366918910.

Date/timePositionNaut miles runAvg speedWind from/ knotsBaromVisibWave heightAir tempDewpointWater temp
2017-Jun-28 06:35N 47°54' W 122°37'1 0.5
2017-Jun-28 05:22N 47°54' W 122°37'0 0.3
2017-Jun-28 03:38N 47°54' W 122°36'0 0.9
2017-Jun-28 03:25N 47°53' W 122°36'11 6.8
2017-Jun-28 01:43N 47°44' W 122°46'3 8.2
2017-Jun-28 01:20N 47°41' W 122°47'3 8.7
2017-Jun-28 01:00N 47°40' W 122°51'3 0.2
2017-Jun-27 13:13N 47°40' W 122°55'0 0.0
2017-Jun-27 12:01N 47°40' W 122°55'0 0.0
2017-Jun-27 11:49N 47°40' W 122°55'0 0.0
2017-Jun-27 10:01N 47°40' W 122°55'0 0.0
2017-Jun-27 09:42N 47°40' W 122°55'0 1.5
2017-Jun-27 09:31N 47°40' W 122°55'2 4.3
2017-Jun-27 09:01N 47°40' W 122°51'0 0.6
2017-Jun-27 08:31N 47°40' W 122°52'1 1.6
2017-Jun-27 08:00N 47°40' W 122°51'1 2.3
2017-Jun-27 07:30N 47°41' W 122°51'0 0.7
2017-Jun-27 07:00N 47°41' W 122°51'0 0.8
2017-Jun-27 06:31N 47°40' W 122°51'0 0.9
2017-Jun-27 06:01N 47°40' W 122°51'0 0.8
2017-Jun-27 05:31N 47°40' W 122°52'0 0.3
2017-Jun-27 05:00N 47°40' W 122°51'0 0.5
2017-Jun-27 04:30N 47°40' W 122°51'0 0.2
2017-Jun-27 04:01N 47°40' W 122°51'0 0.9
2017-Jun-27 03:30N 47°40' W 122°52'0 0.7
2017-Jun-27 03:01N 47°40' W 122°51'1 2.0
2017-Jun-27 02:31N 47°40' W 122°53'0 0.5
2017-Jun-27 02:00N 47°40' W 122°53'4 7.3
2017-Jun-27 01:31N 47°37' W 122°56'5 9.3
2017-Jun-27 01:00N 47°33' W 123°00'5 9.5
2017-Jun-27 00:30N 47°29' W 123°04'8 0.6
2017-Jun-26 11:23N 47°21' W 123°04'3 6.8
2017-Jun-26 10:57N 47°23' W 123°08'0 0.1
2017-Jun-26 08:05N 47°23' W 123°08'1 4.1
2017-Jun-26 07:57N 47°22' W 123°08'0 0.5
2017-Jun-26 07:28N 47°23' W 123°08'0 0.3
2017-Jun-26 06:55N 47°23' W 123°08'0 0.4
2017-Jun-26 06:25N 47°22' W 123°08'0 0.5
2017-Jun-26 06:00N 47°23' W 123°08'0 0.6
2017-Jun-26 05:30N 47°23' W 123°08'1 1.1
2017-Jun-26 04:46N 47°22' W 123°08'1 2.4
2017-Jun-26 04:31N 47°23' W 123°08'0 0.1
2017-Jun-26 03:50N 47°23' W 123°08'3 0.2
2017-Jun-25 10:06N 47°21' W 123°04'3 7.7
2017-Jun-25 09:47N 47°22' W 123°07'2 7.8
2017-Jun-25 09:30N 47°25' W 123°07'0 0.4
2017-Jun-25 09:00N 47°24' W 123°08'1 2.5
2017-Jun-25 08:30N 47°26' W 123°07'1 1.4
2017-Jun-25 08:00N 47°25' W 123°07'1 2.2
2017-Jun-25 07:29N 47°26' W 123°06'1 1.8
2017-Jun-25 06:55N 47°25' W 123°07'0 0.1
2017-Jun-25 06:29N 47°25' W 123°07'0 0.2
2017-Jun-25 06:00N 47°25' W 123°07'1 1.6
2017-Jun-25 05:20N 47°24' W 123°08'0 0.3
2017-Jun-25 05:00N 47°24' W 123°08'1 1.4
2017-Jun-25 04:28N 47°25' W 123°07'0 0.1
2017-Jun-25 03:32N 47°25' W 123°07'0 0.7
2017-Jun-25 03:26N 47°25' W 123°07'0 0.2
2017-Jun-25 03:00N 47°25' W 123°07'0 0.3
2017-Jun-25 02:30N 47°25' W 123°07'0 0.9
2017-Jun-25 02:00N 47°25' W 123°07'1 1.5
2017-Jun-25 01:29N 47°25' W 123°07'0 0.7
2017-Jun-25 01:00N 47°26' W 123°07'5 0.3
2017-Jun-24 10:15N 47°21' W 123°04'0 0.7
2017-Jun-24 09:38N 47°21' W 123°04'0 2.2
2017-Jun-24 09:27N 47°21' W 123°04'0 0.0
2017-Jun-22 16:40N 47°21' W 123°04'0 0.0
2017-Jun-22 16:29N 47°21' W 123°04'0 0.0
2017-Jun-22 15:54N 47°21' W 123°04'  

Dump ship's entire track history